createdAt,value
2022-11-18T09:49:28.785Z,1.13
2022-11-18T09:51:56.053Z,0.52
2022-11-18T09:54:25.195Z,0.77
2022-11-18T09:56:53.225Z,0.60
2022-11-18T09:59:22.298Z,0.77
2022-11-18T10:01:50.442Z,1.02
2022-11-18T10:04:18.896Z,1.20
2022-11-18T10:06:47.230Z,1.25
2022-11-18T10:09:27.293Z,1.10
2022-11-18T10:12:03.530Z,1.35
2022-11-18T10:14:42.817Z,1.10
2022-11-18T10:17:28.603Z,0.88
2022-11-18T10:19:58.080Z,0.98
2022-11-18T10:22:28.067Z,0.75
2022-11-18T10:24:56.360Z,1.40
2022-11-18T10:27:24.770Z,0.95
2022-11-18T10:32:20.517Z,1.35
2022-11-18T12:11:15.266Z,2.00
2022-11-18T12:13:59.015Z,1.13
2022-11-18T12:16:33.805Z,1.40
2022-11-18T12:19:03.483Z,3.75
2022-11-18T12:21:45.960Z,2.60
2022-11-18T12:24:18.862Z,3.30
2022-11-18T12:26:47.000Z,3.50
2022-11-18T12:29:20.459Z,3.72
2022-11-18T12:34:35.160Z,2.05
2022-11-18T12:37:34.737Z,1.88
2022-11-18T12:40:01.916Z,2.20
2022-11-18T12:43:06.458Z,4.72
2022-11-18T12:45:43.503Z,3.35
2022-11-18T12:48:40.334Z,1.80
2022-11-18T12:51:16.362Z,2.00
2022-11-18T12:53:44.986Z,1.67
2022-11-18T12:56:12.141Z,2.67
2022-11-18T12:58:39.226Z,3.30
2022-11-18T13:01:11.890Z,3.70
2022-11-18T13:03:39.166Z,2.43
2022-11-18T13:06:26.551Z,2.92
2022-11-18T13:08:55.493Z,3.53
2022-11-18T13:11:41.780Z,2.65
2022-11-18T13:14:33.114Z,1.92
2022-11-18T13:17:19.157Z,2.10
2022-11-18T13:19:59.123Z,1.67
2022-11-18T13:22:44.926Z,2.17
2022-11-18T13:25:25.057Z,3.22
2022-11-18T13:28:03.514Z,4.28
2022-11-18T13:30:31.480Z,2.78
2022-11-18T13:32:59.453Z,3.00
2022-11-18T13:35:30.098Z,2.90
2022-11-18T13:38:01.718Z,3.63
2022-11-18T13:40:30.459Z,5.32
2022-11-18T13:42:57.887Z,2.42
2022-11-18T13:45:27.984Z,2.95
2022-11-18T13:47:55.149Z,3.63
2022-11-18T13:50:32.821Z,3.92
2022-11-18T13:53:30.384Z,3.05
2022-11-18T13:56:01.670Z,3.33
2022-11-18T13:58:33.937Z,2.22
2022-11-18T14:01:14.768Z,2.58
2022-11-18T14:03:56.623Z,4.35
2022-11-18T14:06:33.055Z,4.53
2022-11-18T14:09:12.186Z,2.83
2022-11-18T14:11:41.402Z,3.30
2022-11-18T14:14:09.650Z,4.57
2022-11-18T14:16:38.099Z,4.30
2022-11-18T14:19:05.577Z,3.63
2022-11-18T14:21:34.419Z,3.00
2022-11-18T14:24:02.077Z,3.70
2022-11-18T14:26:33.391Z,4.50
2022-11-18T14:29:14.881Z,4.90
2022-11-18T14:31:43.245Z,3.30
2022-11-18T14:34:19.408Z,4.05
2022-11-18T14:36:46.870Z,4.10
2022-11-18T14:39:26.510Z,3.17
2022-11-18T14:41:54.683Z,4.28
2022-11-18T14:44:23.288Z,4.18
2022-11-18T14:47:10.882Z,3.70
2022-11-18T14:49:38.357Z,3.80
2022-11-18T14:52:05.530Z,3.33
2022-11-18T14:54:33.159Z,3.80
2022-11-18T14:57:04.656Z,4.85
2022-11-18T14:59:31.811Z,4.38
2022-11-18T15:01:59.522Z,5.10
2022-11-18T15:04:26.884Z,3.83
2022-11-18T15:06:54.403Z,3.47
2022-11-18T15:09:21.744Z,4.30
2022-11-18T15:11:48.881Z,3.38
2022-11-18T15:14:16.263Z,3.50
2022-11-18T15:16:43.823Z,3.40
2022-11-18T15:19:15.075Z,1.67
2022-11-18T15:21:42.322Z,2.10
2022-11-18T15:24:09.574Z,2.50
2022-11-18T15:26:39.054Z,2.72
2022-11-18T15:29:06.322Z,2.83
2022-11-18T15:31:33.606Z,2.22
2022-11-18T15:34:06.371Z,3.20
2022-11-18T15:36:34.170Z,3.30
2022-11-18T15:39:01.319Z,3.30
2022-11-18T15:41:29.717Z,2.95
2022-11-18T15:43:58.387Z,3.95
2022-11-18T15:46:26.329Z,2.88
2022-11-18T15:48:54.270Z,4.43
2022-11-18T15:51:21.491Z,4.18
2022-11-18T15:53:48.609Z,2.90
2022-11-18T15:56:21.822Z,3.92
2022-11-18T15:59:00.942Z,2.78
2022-11-18T16:01:29.326Z,3.42
2022-11-18T16:03:56.878Z,3.50
2022-11-18T16:06:24.473Z,3.45
2022-11-18T16:08:57.551Z,3.40
2022-11-18T16:11:45.655Z,2.63
2022-11-18T16:14:13.623Z,2.33
2022-11-18T16:16:41.313Z,3.22
2022-11-18T16:19:09.567Z,3.47
2022-11-18T16:21:38.251Z,3.72
2022-11-18T16:24:06.670Z,4.25
2022-11-18T16:26:34.365Z,3.78
2022-11-18T16:29:01.619Z,3.90
2022-11-18T16:31:41.362Z,3.90
2022-11-18T16:34:09.061Z,3.38
2022-11-18T16:36:37.071Z,2.80
2022-11-18T16:39:08.374Z,2.83
2022-11-18T16:41:35.704Z,3.60
2022-11-18T16:44:06.657Z,3.22
2022-11-18T16:46:34.989Z,3.88
2022-11-18T16:49:02.437Z,4.40
2022-11-18T16:51:30.706Z,2.90
2022-11-18T16:54:05.670Z,3.55
2022-11-18T16:56:33.746Z,3.38
2022-11-18T16:59:08.026Z,4.88
2022-11-18T17:01:35.223Z,5.03
2022-11-18T17:04:02.494Z,5.35
2022-11-18T17:06:30.918Z,3.75
2022-11-18T17:09:01.142Z,2.53
2022-11-18T17:11:28.474Z,3.80
2022-11-18T17:13:58.338Z,3.67
2022-11-18T17:16:26.467Z,3.13
2022-11-18T17:18:57.753Z,3.80
2022-11-18T17:21:25.471Z,3.05
2022-11-18T17:23:52.674Z,3.25
2022-11-18T17:26:21.448Z,3.63
2022-11-18T17:28:48.722Z,3.95
2022-11-18T17:31:16.949Z,3.42
2022-11-18T17:33:44.611Z,4.03
2022-11-18T17:36:15.716Z,4.72
2022-11-18T17:38:44.087Z,2.88
2022-11-18T17:41:31.631Z,3.38
2022-11-18T17:43:59.021Z,3.70
2022-11-18T17:46:26.262Z,4.07
2022-11-18T17:48:59.352Z,4.00
2022-11-18T17:51:27.602Z,3.40
2022-11-18T17:53:54.795Z,5.07
2022-11-18T17:56:22.365Z,4.25
2022-11-18T17:58:49.753Z,4.00
2022-11-18T18:01:17.443Z,4.47
2022-11-18T18:03:44.620Z,3.85
2022-11-18T18:06:12.157Z,2.65
2022-11-18T18:08:39.579Z,3.17
2022-11-18T18:11:11.610Z,3.38
2022-11-18T18:13:57.886Z,3.15
2022-11-18T18:16:25.547Z,3.35
2022-11-18T18:18:52.774Z,3.03
2022-11-18T18:21:20.333Z,2.50
2022-11-18T18:23:47.713Z,3.55
2022-11-18T18:26:15.404Z,4.35
2022-11-18T18:28:42.518Z,3.83
2022-11-18T18:31:14.160Z,4.70
2022-11-18T18:33:42.098Z,5.72
2022-11-18T18:36:10.828Z,5.65
2022-11-18T18:38:38.977Z,3.97
2022-11-18T18:41:07.789Z,4.60
2022-11-18T18:43:35.065Z,4.45
2022-11-18T18:46:21.506Z,4.65
2022-11-18T18:48:48.753Z,4.32
2022-11-18T18:51:17.011Z,4.78
2022-11-18T18:53:44.316Z,3.40
2022-11-18T18:56:11.494Z,3.72
2022-11-18T18:58:38.635Z,3.35
2022-11-18T19:01:09.331Z,3.95
2022-11-18T19:03:36.605Z,4.65
2022-11-18T19:06:51.580Z,3.97
2022-11-18T19:09:12.593Z,2.40
2022-11-18T19:11:58.816Z,4.45
2022-11-18T19:14:26.386Z,3.88
2022-11-18T19:16:53.812Z,4.57
2022-11-18T19:19:40.830Z,4.00
2022-11-18T19:22:08.500Z,3.45
2022-11-18T19:24:49.261Z,3.85
2022-11-18T19:27:17.772Z,4.07
2022-11-18T19:29:45.044Z,3.83
2022-11-18T19:32:12.150Z,2.97
2022-11-18T19:34:39.234Z,2.70
2022-11-18T19:37:06.369Z,3.40
2022-11-18T19:39:33.719Z,2.67
2022-11-18T19:42:00.903Z,4.30
2022-11-18T19:44:28.021Z,3.13
2022-11-18T19:46:55.151Z,3.40
2022-11-18T19:49:22.756Z,4.25
2022-11-18T19:51:49.958Z,4.22
2022-11-18T19:54:17.182Z,3.13
2022-11-18T19:56:44.420Z,3.42
2022-11-18T19:59:12.539Z,3.25
2022-11-18T20:01:39.695Z,3.58
2022-11-18T20:04:06.889Z,3.22
2022-11-18T20:06:35.324Z,2.85
2022-11-18T20:09:02.690Z,3.25
2022-11-18T20:11:29.877Z,3.67
2022-11-18T20:13:57.090Z,3.75
2022-11-18T20:16:25.288Z,4.80
2022-11-18T20:18:53.529Z,4.95
2022-11-18T20:21:21.043Z,4.40
2022-11-18T20:23:49.047Z,4.90
2022-11-18T20:26:17.020Z,4.47
2022-11-18T20:28:44.969Z,4.43
2022-11-18T20:31:15.112Z,3.75
2022-11-18T20:33:43.761Z,3.50
2022-11-18T20:36:12.214Z,4.07
2022-11-18T20:38:39.884Z,4.05
2022-11-18T20:41:11.353Z,3.60
2022-11-18T20:43:40.479Z,3.28
2022-11-18T20:46:09.525Z,3.45
2022-11-18T20:48:36.892Z,4.05
2022-11-18T20:51:04.678Z,4.32
2022-11-18T20:53:31.932Z,5.07
2022-11-18T20:55:59.046Z,3.75
2022-11-18T20:58:26.209Z,3.15
2022-11-18T21:00:56.125Z,4.82
2022-11-18T21:03:26.428Z,2.88
2022-11-18T21:05:53.561Z,4.38
2022-11-18T21:08:20.666Z,3.70
2022-11-18T21:10:47.775Z,3.83
2022-11-18T21:13:33.423Z,3.78
2022-11-18T21:16:02.073Z,2.78
2022-11-18T21:18:30.100Z,3.55
2022-11-18T21:21:16.995Z,3.88
2022-11-18T21:23:44.097Z,3.58
2022-11-18T21:26:13.403Z,3.72
2022-11-18T21:28:40.745Z,3.35
2022-11-18T21:31:11.602Z,3.50
2022-11-18T21:33:39.273Z,3.88
2022-11-18T21:36:06.532Z,3.55
2022-11-18T21:38:33.625Z,3.17
2022-11-18T21:41:04.337Z,3.53
2022-11-18T21:44:03.900Z,2.95
2022-11-18T21:46:22.638Z,3.03
2022-11-18T21:48:49.849Z,3.17
2022-11-18T21:51:17.878Z,2.70
2022-11-18T21:53:46.093Z,2.88
2022-11-18T21:56:17.354Z,4.35
2022-11-18T21:58:44.735Z,3.90
2022-11-18T22:01:13.327Z,4.00
2022-11-18T22:03:41.569Z,3.72
2022-11-18T22:06:09.684Z,2.97
2022-11-18T22:08:37.703Z,2.28
2022-11-18T22:11:05.481Z,2.85
2022-11-18T22:13:32.642Z,2.88
2022-11-18T22:16:00.541Z,2.92
2022-11-18T22:18:31.408Z,2.28
2022-11-18T22:20:59.413Z,2.42
2022-11-18T22:23:27.957Z,2.53
2022-11-18T22:26:07.561Z,2.05
2022-11-18T22:28:34.945Z,2.33
2022-11-18T22:31:10.394Z,2.58
2022-11-18T22:33:37.546Z,2.53
2022-11-18T22:36:06.256Z,2.45
2022-11-18T22:38:33.475Z,2.15
2022-11-18T22:41:04.720Z,1.83
2022-11-18T22:43:32.759Z,2.22
2022-11-18T22:46:04.017Z,2.15
2022-11-18T22:48:31.156Z,2.35
2022-11-18T22:51:02.382Z,2.28
2022-11-18T22:53:30.002Z,2.25
2022-11-18T22:56:06.399Z,2.03
2022-11-18T22:58:33.741Z,2.08
2022-11-18T23:01:05.076Z,3.00
2022-11-18T23:03:32.668Z,3.47
2022-11-18T23:06:00.283Z,2.40
2022-11-18T23:08:28.387Z,3.38
2022-11-18T23:11:01.749Z,2.85
2022-11-18T23:13:47.534Z,1.45
2022-11-18T23:18:41.722Z,2.13
2022-11-18T23:21:08.836Z,3.13
2022-11-18T23:23:35.948Z,2.47
2022-11-18T23:26:04.283Z,2.33
2022-11-18T23:28:31.565Z,2.63
2022-11-18T23:31:05.955Z,2.50
2022-11-18T23:33:33.734Z,1.70
2022-11-18T23:36:01.006Z,1.88
2022-11-18T23:38:32.071Z,2.53
2022-11-18T23:40:59.923Z,1.60
